createdAt,value
2019-03-30T00:01:00.761Z,32.00
2019-03-30T00:06:06.289Z,32.30
2019-03-30T00:11:12.024Z,32.33
2019-03-30T00:16:17.678Z,34.27
2019-03-30T00:21:23.345Z,35.40
2019-03-30T00:26:29.301Z,35.53
2019-03-30T00:31:34.894Z,31.63
2019-03-30T00:36:45.618Z,30.37
2019-03-30T00:41:51.247Z,29.17
2019-03-30T00:46:57.040Z,31.57
2019-03-30T00:52:02.622Z,33.73
2019-03-30T00:57:08.175Z,40.77
2019-03-30T01:02:13.853Z,38.27
2019-03-30T01:07:20.772Z,33.47
2019-03-30T01:12:26.256Z,34.03
2019-03-30T01:17:32.502Z,32.63
2019-03-30T01:22:38.107Z,30.53
2019-03-30T01:27:43.936Z,32.30
2019-03-30T01:32:49.384Z,35.60
2019-03-30T01:37:54.980Z,37.37
2019-03-30T01:43:00.730Z,35.77
2019-03-30T01:48:06.268Z,36.07
2019-03-30T01:53:11.784Z,39.93
2019-03-30T01:58:17.451Z,39.23
2019-03-30T02:03:24.091Z,35.70
2019-03-30T02:08:29.606Z,37.63
2019-03-30T02:13:35.099Z,38.87
2019-03-30T02:18:40.818Z,34.97
2019-03-30T02:23:46.340Z,34.73
2019-03-30T02:28:56.776Z,33.47
2019-03-30T02:34:02.466Z,32.97
2019-03-30T02:39:08.007Z,34.10
2019-03-30T02:44:13.869Z,29.83
2019-03-30T02:49:19.526Z,31.07
2019-03-30T02:54:25.033Z,34.30
2019-03-30T02:59:33.752Z,35.57
2019-03-30T03:04:39.831Z,39.50
2019-03-30T03:09:45.438Z,36.57
2019-03-30T03:14:51.024Z,37.57
2019-03-30T03:19:56.827Z,40.03
2019-03-30T03:25:02.357Z,39.40
2019-03-30T03:30:08.687Z,35.90
2019-03-30T03:35:14.181Z,39.53
2019-03-30T03:40:19.954Z,43.00
2019-03-30T03:45:25.523Z,38.83
2019-03-30T03:50:44.355Z,33.07
2019-03-30T03:55:50.058Z,33.10
2019-03-30T04:00:58.102Z,35.87
2019-03-30T04:06:06.257Z,36.13
2019-03-30T04:11:13.335Z,36.63
2019-03-30T04:16:18.874Z,39.10
2019-03-30T04:21:42.435Z,32.77
2019-03-30T04:26:33.563Z,37.37
2019-03-30T04:31:39.356Z,37.33
2019-03-30T04:36:44.917Z,43.83
2019-03-30T04:41:50.520Z,39.17
2019-03-30T04:46:57.935Z,41.80
2019-03-30T04:52:04.912Z,42.20
2019-03-30T04:57:12.243Z,41.87
2019-03-30T05:02:17.860Z,43.77
2019-03-30T05:07:23.634Z,40.80
2019-03-30T05:12:29.858Z,39.07
2019-03-30T05:17:47.040Z,38.53
2019-03-30T05:22:43.149Z,42.03
2019-03-30T05:28:06.677Z,34.33
2019-03-30T05:33:12.316Z,35.53
2019-03-30T05:38:18.424Z,33.77
2019-03-30T05:43:24.620Z,40.33
2019-03-30T05:48:58.846Z,37.40
2019-03-30T05:53:58.266Z,36.00
2019-03-30T05:59:03.993Z,34.73
2019-03-30T06:04:10.165Z,32.30
2019-03-30T06:09:20.858Z,38.20
2019-03-30T06:15:09.254Z,32.83
2019-03-30T06:20:10.132Z,32.97
2019-03-30T06:25:16.130Z,35.53
2019-03-30T06:30:23.990Z,37.57
2019-03-30T06:35:29.584Z,33.30
2019-03-30T06:40:35.156Z,31.77
2019-03-30T06:45:40.731Z,33.77
2019-03-30T06:50:46.494Z,29.33
2019-03-30T06:55:52.176Z,33.03
2019-03-30T07:00:58.535Z,27.43
2019-03-30T07:06:04.405Z,30.23
2019-03-30T07:11:20.956Z,35.60
2019-03-30T07:16:18.032Z,29.90
2019-03-30T07:21:23.732Z,30.10
2019-03-30T07:26:29.346Z,27.77
2019-03-30T07:31:35.540Z,26.27
2019-03-30T07:36:41.520Z,32.60
2019-03-30T07:41:47.071Z,31.07
2019-03-30T07:46:52.614Z,29.00
2019-03-30T07:51:58.380Z,29.40
2019-03-30T07:57:08.822Z,31.27
2019-03-30T08:02:11.522Z,31.37
2019-03-30T08:07:17.059Z,28.27
2019-03-30T08:12:23.030Z,29.07
2019-03-30T08:17:28.685Z,27.57
2019-03-30T08:22:34.825Z,29.70
2019-03-30T08:27:40.636Z,27.23
2019-03-30T08:32:46.548Z,26.77
2019-03-30T08:37:52.358Z,27.30
2019-03-30T08:42:58.347Z,27.80
2019-03-30T08:48:16.893Z,25.63
2019-03-30T08:53:22.708Z,26.03
2019-03-30T08:58:28.576Z,28.17
2019-03-30T09:03:34.816Z,32.10
2019-03-30T09:08:40.626Z,28.47
2019-03-30T09:13:46.226Z,28.67
2019-03-30T09:18:54.246Z,28.33
2019-03-30T09:24:09.679Z,26.03
2019-03-30T09:29:07.160Z,25.57
2019-03-30T09:34:12.849Z,25.73
2019-03-30T09:39:18.732Z,26.43
2019-03-30T09:44:24.851Z,25.00
2019-03-30T09:49:35.909Z,24.83
2019-03-30T09:54:41.608Z,21.70
2019-03-30T09:59:47.200Z,21.60
2019-03-30T10:04:53.042Z,21.63
2019-03-30T10:09:58.751Z,21.83
2019-03-30T10:15:05.064Z,22.80
2019-03-30T10:20:10.961Z,22.37
2019-03-30T10:25:16.654Z,21.93
2019-03-30T10:30:25.155Z,20.68
2019-03-30T10:35:30.925Z,21.52
2019-03-30T10:40:36.556Z,22.50
2019-03-30T10:45:42.865Z,21.73
2019-03-30T10:50:50.245Z,21.85
2019-03-30T10:55:55.957Z,21.10
2019-03-30T12:12:09.525Z,25.43
2019-03-30T12:17:15.125Z,21.55
2019-03-30T12:22:21.177Z,20.35
2019-03-30T12:27:27.383Z,20.35
2019-03-30T12:32:33.688Z,21.85
2019-03-30T12:37:43.530Z,22.22
2019-03-30T12:42:49.478Z,22.35
2019-03-30T12:47:57.357Z,21.35
2019-03-30T12:53:03.211Z,24.00
2019-03-30T12:58:10.128Z,20.85
2019-03-30T13:03:16.178Z,20.72
2019-03-30T13:08:22.685Z,23.80
2019-03-30T13:13:29.949Z,20.40
2019-03-30T13:18:37.506Z,24.63
2019-03-30T13:23:43.507Z,24.45
2019-03-30T13:28:51.964Z,23.20
2019-03-30T13:34:01.196Z,21.52
2019-03-30T13:45:09.387Z,20.62
2019-03-30T13:50:17.075Z,20.85
2019-03-30T13:55:23.948Z,21.23
2019-03-30T14:00:30.179Z,21.40
2019-03-30T14:05:38.527Z,20.60
2019-03-30T14:10:44.320Z,19.48
2019-03-30T14:21:48.427Z,20.15
2019-03-30T14:26:56.145Z,21.05
2019-03-30T14:32:04.238Z,20.10
2019-03-30T14:37:11.750Z,21.57
2019-03-30T14:42:17.612Z,21.17
2019-03-30T14:47:28.776Z,19.23
2019-03-30T14:52:35.083Z,20.72
2019-03-30T14:57:42.324Z,21.30
2019-03-30T15:02:49.198Z,22.22
2019-03-30T15:07:55.267Z,17.85
2019-03-30T15:13:00.936Z,18.50
2019-03-30T15:18:06.874Z,22.40
2019-03-30T15:23:12.574Z,20.68
2019-03-30T15:28:18.667Z,21.75
2019-03-30T15:33:24.275Z,19.40
2019-03-30T15:38:30.440Z,20.27
2019-03-30T15:43:39.018Z,17.65
2019-03-30T15:48:45.212Z,18.12
2019-03-30T15:53:50.860Z,20.85
2019-03-30T15:58:56.628Z,19.20
2019-03-30T16:04:02.950Z,22.33
2019-03-30T16:09:08.858Z,21.00
2019-03-30T16:14:14.978Z,21.05
2019-03-30T16:19:21.162Z,19.17
2019-03-30T16:24:30.025Z,18.90
2019-03-30T16:29:34.147Z,18.90
2019-03-30T16:34:42.150Z,17.75
2019-03-30T16:39:48.192Z,18.30
2019-03-30T16:44:53.941Z,18.23
2019-03-30T16:50:00.509Z,19.02
2019-03-30T16:55:08.057Z,18.60
2019-03-30T17:00:16.086Z,18.40
2019-03-30T17:05:21.867Z,18.45
2019-03-30T17:10:27.730Z,18.98
2019-03-30T17:15:33.427Z,19.60
2019-03-30T17:20:42.055Z,18.45
2019-03-30T17:25:52.775Z,20.90
2019-03-30T17:31:00.641Z,19.90
2019-03-30T17:36:06.436Z,18.73
2019-03-30T17:41:12.171Z,20.00
2019-03-30T17:46:17.719Z,20.82
2019-03-30T17:51:23.242Z,19.23
2019-03-30T17:56:29.003Z,21.37
2019-03-30T18:01:34.830Z,19.23
2019-03-30T18:06:43.765Z,19.67
2019-03-30T18:11:49.772Z,21.77
2019-03-30T18:16:55.608Z,23.98
2019-03-30T18:22:01.509Z,25.77
2019-03-30T18:27:09.169Z,27.22
2019-03-30T18:32:14.849Z,25.12
2019-03-30T18:37:21.737Z,24.75
2019-03-30T18:42:28.319Z,30.95
2019-03-30T18:47:34.561Z,36.58
2019-03-30T18:52:43.368Z,32.33
2019-03-30T18:57:51.493Z,25.60
2019-03-30T19:02:58.847Z,25.60
2019-03-30T19:08:08.330Z,25.15
2019-03-30T19:13:14.167Z,27.27
2019-03-30T19:18:20.267Z,26.60
2019-03-30T19:23:25.988Z,25.52
2019-03-30T19:28:31.677Z,24.98
2019-03-30T19:33:37.321Z,25.20
2019-03-30T19:38:43.088Z,27.00
2019-03-30T19:43:49.170Z,25.70
2019-03-30T19:48:55.276Z,25.80
2019-03-30T19:54:01.403Z,25.17
2019-03-30T19:59:11.057Z,27.20
2019-03-30T20:04:15.679Z,28.43
2019-03-30T20:09:21.396Z,30.70
2019-03-30T20:14:31.329Z,28.47
2019-03-30T20:19:37.809Z,31.27
2019-03-30T20:24:43.337Z,30.37
2019-03-30T20:29:48.941Z,30.73
2019-03-30T20:34:54.476Z,30.07
2019-03-30T20:40:01.471Z,28.63
2019-03-30T20:45:07.921Z,27.70
2019-03-30T20:50:13.610Z,27.20
2019-03-30T20:55:19.230Z,26.20
2019-03-30T21:00:26.051Z,26.17
2019-03-30T21:05:32.073Z,27.00
2019-03-30T21:10:37.799Z,27.27
2019-03-30T21:15:43.367Z,32.67
2019-03-30T21:20:49.117Z,27.07
2019-03-30T21:25:54.902Z,31.07
2019-03-30T21:31:00.991Z,28.80
2019-03-30T21:36:06.690Z,27.27
2019-03-30T21:41:13.915Z,28.43
2019-03-30T21:46:24.716Z,29.33
2019-03-30T21:51:31.368Z,29.33
2019-03-30T21:56:37.549Z,30.47
2019-03-30T22:01:43.394Z,30.53
2019-03-30T22:06:49.039Z,36.60
2019-03-30T22:11:54.874Z,32.00
2019-03-30T22:17:00.395Z,32.53
2019-03-30T22:22:07.907Z,29.53
2019-03-30T22:27:13.466Z,32.53
2019-03-30T22:32:19.036Z,33.40
2019-03-30T22:37:24.587Z,30.27
2019-03-30T22:42:30.680Z,35.87
2019-03-30T22:47:36.672Z,33.97
2019-03-30T22:52:42.215Z,36.20
2019-03-30T22:57:47.787Z,36.40
2019-03-30T23:02:53.760Z,34.37
2019-03-30T23:07:59.342Z,35.63
2019-03-30T23:13:05.326Z,34.57
2019-03-30T23:18:10.935Z,37.50
2019-03-30T23:23:16.871Z,36.67
2019-03-30T23:28:22.457Z,36.43
2019-03-30T23:33:27.995Z,33.57
2019-03-30T23:38:33.658Z,31.57
2019-03-30T23:43:39.760Z,31.37
2019-03-30T23:48:46.132Z,30.53
2019-03-30T23:53:51.741Z,30.67
2019-03-30T23:59:02.381Z,33.93
